Time;durP1;ratioP1;P1;durP2;ratioP2;P2;SDS_P1;SDS_P2;PMS_P1;PMS_P2;Temp;Humidity;BMP_temperature;BMP_pressure;BME280_temperature;BME280_humidity;BME280_pressure;Samples;Min_cycle;Max_cycle;Signal;HPM_P1;HPM_P2
2023/04/11 00:02:22;;;;;;;1.15;0.50;;;11.70;99.90;;;;;;5072461;28;20200;-66
2023/04/11 00:04:59;;;;;;;0.82;0.40;;;11.70;99.90;;;;;;5067643;28;20204;-65
2023/04/11 00:07:25;;;;;;;1.25;0.65;;;11.70;99.90;;;;;;5079070;28;20171;-66
2023/04/11 00:09:51;;;;;;;0.50;0.30;;;11.70;99.90;;;;;;5078350;28;20180;-67
2023/04/11 00:12:16;;;;;;;0.82;0.50;;;11.80;99.90;;;;;;5089757;28;20218;-66
2023/04/11 00:14:47;;;;;;;2.28;0.57;;;11.70;99.90;;;;;;5077810;28;20183;-66
2023/04/11 00:17:16;;;;;;;2.05;0.60;;;11.70;99.90;;;;;;5079787;28;20172;-66
2023/04/11 00:19:44;;;;;;;1.70;0.63;;;11.80;99.90;;;;;;5080139;28;20168;-66
2023/04/11 00:22:17;;;;;;;2.22;0.70;;;11.80;99.90;;;;;;5079686;28;20187;-66
2023/04/11 00:24:45;;;;;;;1.67;0.73;;;11.80;99.90;;;;;;5079756;28;20200;-66
2023/04/11 00:27:11;;;;;;;1.80;0.60;;;11.80;99.90;;;;;;5068245;28;20255;-68
2023/04/11 00:29:36;;;;;;;1.65;0.60;;;11.80;99.90;;;;;;5113321;27;20325;-66
2023/04/11 00:32:02;;;;;;;0.82;0.60;;;11.90;99.90;;;;;;5110036;28;20287;-66
2023/04/11 00:34:28;;;;;;;2.65;0.60;;;11.80;99.90;;;;;;5067265;28;20255;-66
2023/04/11 00:36:54;;;;;;;2.85;0.75;;;11.80;99.90;;;;;;5079378;28;20273;-67
2023/04/11 00:39:22;;;;;;;1.92;0.80;;;11.90;99.90;;;;;;5079651;28;20164;-66
2023/04/11 00:41:50;;;;;;;1.75;0.80;;;11.90;99.90;;;;;;5079619;28;20168;-67
2023/04/11 00:44:16;;;;;;;2.88;0.85;;;11.90;99.90;;;;;;5078943;28;20196;-66
2023/04/11 00:46:43;;;;;;;4.05;0.93;;;11.90;99.90;;;;;;5073977;28;20226;-66
2023/04/11 00:49:12;;;;;;;1.52;0.90;;;11.90;99.90;;;;;;5075578;28;20188;-66
2023/04/11 00:51:37;;;;;;;2.50;0.90;;;12.00;99.90;;;;;;5079744;28;20207;-67
2023/04/11 00:54:09;;;;;;;2.92;0.90;;;11.90;99.90;;;;;;5074610;28;20173;-66
2023/04/11 00:56:39;;;;;;;3.55;0.90;;;11.90;99.90;;;;;;5068011;28;20183;-67
2023/04/11 00:59:05;;;;;;;2.97;0.90;;;11.90;99.90;;;;;;5079971;28;20199;-67
2023/04/11 01:01:35;;;;;;;2.42;0.80;;;11.90;99.90;;;;;;5097410;28;20210;-67
2023/04/11 01:04:00;;;;;;;4.18;0.80;;;11.90;99.90;;;;;;5077994;28;20271;-67
2023/04/11 01:06:31;;;;;;;2.65;1.00;;;11.90;99.90;;;;;;5071956;28;20185;-67
2023/04/11 01:09:03;;;;;;;3.17;0.95;;;12.00;99.90;;;;;;5112376;28;20179;-67
2023/04/11 01:11:29;;;;;;;3.58;0.90;;;11.90;99.90;;;;;;5075939;28;20169;-67
2023/04/11 01:13:58;;;;;;;4.00;0.85;;;11.90;99.90;;;;;;5076688;28;20235;-67
2023/04/11 01:16:28;;;;;;;2.75;1.08;;;11.90;99.90;;;;;;5068131;28;20246;-67
2023/04/11 01:18:56;;;;;;;1.42;0.90;;;11.90;99.90;;;;;;5089952;28;20235;-67
2023/04/11 01:21:23;;;;;;;3.75;0.93;;;11.90;99.90;;;;;;5072328;28;20176;-67
2023/04/11 01:23:51;;;;;;;4.88;1.15;;;11.80;99.90;;;;;;5074478;28;20246;-67
2023/04/11 01:26:19;;;;;;;2.15;0.70;;;11.80;99.90;;;;;;5072773;28;20192;-67
2023/04/11 01:28:45;;;;;;;3.55;1.23;;;11.80;99.90;;;;;;5076663;28;20175;-65
2023/04/11 01:31:11;;;;;;;1.60;0.82;;;11.80;99.90;;;;;;5085746;28;20345;-65
2023/04/11 01:33:37;;;;;;;3.40;1.00;;;11.80;99.90;;;;;;5070224;28;20224;-66
2023/04/11 01:36:09;;;;;;;6.03;1.08;;;11.70;99.90;;;;;;5065850;28;20253;-67
2023/04/11 01:38:35;;;;;;;4.47;1.52;;;11.70;99.90;;;;;;5077596;28;20172;-67
2023/04/11 01:41:04;;;;;;;4.47;1.20;;;11.70;99.90;;;;;;5073531;28;20225;-67
2023/04/11 01:43:30;;;;;;;3.50;1.10;;;11.70;99.90;;;;;;5078389;28;20192;-66
2023/04/11 01:45:58;;;;;;;3.03;1.00;;;11.60;99.90;;;;;;5062755;28;20222;-67
2023/04/11 01:48:26;;;;;;;3.90;1.15;;;11.60;99.90;;;;;;5058959;28;20168;-67
2023/04/11 01:50:55;;;;;;;3.55;1.15;;;11.60;99.90;;;;;;5058369;28;20200;-67
2023/04/11 01:53:20;;;;;;;3.95;1.17;;;11.60;99.90;;;;;;5083721;28;20218;-67
2023/04/11 01:55:51;;;;;;;4.82;1.67;;;11.60;99.90;;;;;;5090160;28;20179;-66
2023/04/11 01:58:16;;;;;;;4.53;1.23;;;11.60;99.90;;;;;;5078688;28;20531;-67
2023/04/11 02:00:42;;;;;;;4.20;1.30;;;11.50;99.90;;;;;;5086472;28;20170;-67
2023/04/11 02:03:07;;;;;;;6.18;1.35;;;11.50;99.90;;;;;;5098990;28;20202;-67
2023/04/11 02:05:35;;;;;;;6.05;1.10;;;11.50;99.90;;;;;;5099077;28;20179;-67
2023/04/11 02:08:01;;;;;;;2.97;1.00;;;11.50;99.90;;;;;;5099071;28;20167;-67
2023/04/11 02:10:29;;;;;;;4.70;1.50;;;11.50;99.90;;;;;;5081026;28;20217;-68
2023/04/11 02:12:54;;;;;;;5.85;1.52;;;11.50;99.90;;;;;;5077936;28;20498;-68
2023/04/11 02:15:20;;;;;;;4.63;1.35;;;11.50;99.90;;;;;;5077860;28;20183;-67
2023/04/11 02:17:48;;;;;;;4.70;1.27;;;11.50;99.90;;;;;;5064801;28;20176;-67
2023/04/11 02:20:14;;;;;;;4.70;1.30;;;11.50;99.90;;;;;;5069581;28;20261;-68
2023/04/11 02:22:40;;;;;;;4.05;1.30;;;11.50;99.90;;;;;;5069266;28;20288;-68
2023/04/11 02:25:08;;;;;;;3.45;1.27;;;11.50;99.90;;;;;;5099945;28;20191;-67
2023/04/11 02:27:34;;;;;;;4.55;1.33;;;11.50;99.90;;;;;;5078107;28;20225;-68
2023/04/11 02:30:05;;;;;;;5.43;1.25;;;11.50;99.90;;;;;;5078186;28;20208;-67
2023/04/11 02:32:36;;;;;;;4.68;1.40;;;11.50;99.90;;;;;;5075194;28;20211;-68
2023/04/11 02:35:06;;;;;;;4.22;1.30;;;11.50;99.90;;;;;;5078152;28;20175;-67
2023/04/11 02:37:32;;;;;;;5.10;1.20;;;11.50;99.90;;;;;;5078066;28;20179;-67
2023/04/11 02:40:01;;;;;;;5.32;1.50;;;11.50;99.90;;;;;;5078619;28;20169;-68
2023/04/11 02:42:26;;;;;;;4.80;1.50;;;11.50;99.90;;;;;;5095094;28;20196;-67
2023/04/11 02:44:55;;;;;;;6.55;1.90;;;11.50;99.90;;;;;;5092941;28;20187;-68
2023/04/11 02:47:21;;;;;;;8.20;1.83;;;11.50;99.90;;;;;;5061193;28;20176;-67
2023/04/11 02:49:46;;;;;;;5.07;1.65;;;11.50;99.90;;;;;;5073058;28;20180;-67
2023/04/11 02:52:14;;;;;;;5.43;1.90;;;11.50;99.90;;;;;;5110542;28;20207;-68
2023/04/11 02:54:40;;;;;;;5.68;1.40;;;11.40;99.90;;;;;;5094861;28;20172;-67
2023/04/11 02:57:08;;;;;;;7.72;2.33;;;11.40;99.90;;;;;;5078053;28;20261;-67
2023/04/11 02:59:34;;;;;;;5.20;1.65;;;11.40;99.90;;;;;;5082526;28;20164;-68
2023/04/11 03:02:00;;;;;;;5.70;1.60;;;11.40;99.90;;;;;;5075944;28;20268;-67
2023/04/11 03:04:26;;;;;;;6.22;1.65;;;11.40;99.90;;;;;;5087327;28;20244;-67
2023/04/11 03:06:52;;;;;;;7.32;1.90;;;11.40;99.90;;;;;;5081111;28;20186;-67
2023/04/11 03:09:21;;;;;;;6.70;1.80;;;11.40;99.90;;;;;;5074997;28;20196;-68
2023/04/11 03:11:49;;;;;;;5.68;1.33;;;11.40;99.90;;;;;;5077044;28;20448;-67
2023/04/11 03:14:15;;;;;;;7.32;2.22;;;11.30;99.90;;;;;;5078734;28;20206;-66
2023/04/11 03:16:41;;;;;;;9.93;2.13;;;11.30;99.90;;;;;;5098050;28;20239;-67
2023/04/11 03:19:06;;;;;;;6.88;2.45;;;11.30;99.90;;;;;;5098243;28;20175;-67
2023/04/11 03:21:34;;;;;;;6.55;2.08;;;11.30;99.90;;;;;;5101436;28;20197;-67
2023/04/11 03:24:00;;;;;;;7.65;1.90;;;11.30;99.90;;;;;;5075018;28;20271;-67
2023/04/11 03:26:28;;;;;;;9.13;2.10;;;11.30;99.90;;;;;;5075911;28;20286;-68
2023/04/11 03:28:53;;;;;;;5.70;1.75;;;11.20;99.90;;;;;;5076468;28;20249;-68
2023/04/11 03:31:21;;;;;;;8.68;2.00;;;11.20;99.90;;;;;;5074856;28;20173;-67
2023/04/11 03:33:47;;;;;;;6.68;1.80;;;11.20;99.90;;;;;;5063122;28;20237;-67
2023/04/11 03:36:13;;;;;;;7.13;1.85;;;11.20;99.90;;;;;;5087943;28;20231;-67
2023/04/11 03:38:39;;;;;;;6.43;2.03;;;11.20;99.90;;;;;;5073905;28;20208;-67
2023/04/11 03:41:09;;;;;;;5.63;1.70;;;11.10;99.90;;;;;;5081321;28;20172;-67
2023/04/11 03:43:35;;;;;;;3.97;1.92;;;11.20;99.90;;;;;;5065629;28;20408;-67
2023/04/11 03:46:05;;;;;;;7.20;1.60;;;11.10;99.90;;;;;;5077518;28;20226;-67
2023/04/11 03:48:31;;;;;;;6.15;1.50;;;11.10;99.90;;;;;;5077501;28;20283;-67
2023/04/11 03:50:56;;;;;;;5.70;1.40;;;11.00;99.90;;;;;;5077296;28;20262;-67
2023/04/11 03:53:22;;;;;;;4.32;1.60;;;11.00;99.90;;;;;;5077230;28;20204;-67
2023/04/11 03:55:51;;;;;;;6.70;1.70;;;11.00;99.90;;;;;;5085036;28;20199;-67
2023/04/11 03:58:17;;;;;;;6.15;1.88;;;10.90;99.90;;;;;;5080546;28;20235;-68
2023/04/11 04:00:42;;;;;;;5.65;1.88;;;11.00;99.90;;;;;;5081039;28;20179;-68
2023/04/11 04:03:08;;;;;;;3.38;1.90;;;10.90;99.90;;;;;;5071632;28;20191;-67
2023/04/11 04:05:36;;;;;;;5.80;1.50;;;10.90;99.90;;;;;;5066171;28;20229;-67
2023/04/11 04:08:03;;;;;;;9.48;2.15;;;10.80;99.90;;;;;;5080284;28;20199;-68
2023/04/11 04:10:29;;;;;;;4.88;1.70;;;10.80;99.90;;;;;;5080672;28;20176;-68
2023/04/11 04:12:55;;;;;;;7.68;1.70;;;10.80;99.90;;;;;;5070111;28;20234;-67
2023/04/11 04:15:22;;;;;;;6.38;1.85;;;10.80;99.90;;;;;;5075162;28;20211;-68
2023/04/11 04:17:48;;;;;;;4.30;1.60;;;10.80;99.90;;;;;;5083071;28;20196;-67
2023/04/11 04:20:14;;;;;;;5.72;1.70;;;10.70;99.90;;;;;;5099603;28;20182;-68
2023/04/11 04:22:39;;;;;;;3.85;1.55;;;10.70;99.90;;;;;;5100934;28;20171;-69
2023/04/11 04:25:06;;;;;;;5.88;1.80;;;10.70;99.90;;;;;;5093437;28;20264;-68
2023/04/11 04:27:34;;;;;;;7.35;1.50;;;10.70;99.90;;;;;;5102091;28;20281;-65
2023/04/11 04:29:59;;;;;;;5.38;1.60;;;10.70;99.90;;;;;;5060285;28;20182;-67
2023/04/11 04:32:27;;;;;;;6.38;2.05;;;10.70;99.90;;;;;;5075160;28;20295;-66
2023/04/11 04:34:57;;;;;;;6.20;1.77;;;10.70;99.90;;;;;;5063835;28;20196;-66
2023/04/11 04:37:26;;;;;;;5.22;1.73;;;10.70;99.90;;;;;;5108716;28;20176;-68
2023/04/11 04:39:54;;;;;;;7.73;1.90;;;10.60;99.90;;;;;;5078836;28;20242;-66
2023/04/11 04:42:24;;;;;;;6.63;1.67;;;10.60;99.90;;;;;;5095663;28;20201;-66
2023/04/11 04:44:51;;;;;;;4.60;1.90;;;10.60;99.90;;;;;;5075742;28;20214;-66
2023/04/11 04:47:20;;;;;;;6.60;1.70;;;10.60;99.90;;;;;;5067258;28;20196;-67
2023/04/11 04:49:48;;;;;;;5.85;1.70;;;10.50;99.90;;;;;;5086521;28;20187;-66
2023/04/11 04:52:17;;;;;;;4.30;1.70;;;10.60;99.90;;;;;;5076068;28;20223;-66
2023/04/11 04:54:42;;;;;;;4.78;1.67;;;10.50;99.90;;;;;;5086617;28;20241;-68
2023/04/11 04:57:08;;;;;;;5.47;1.70;;;10.50;99.90;;;;;;5079226;28;20267;-66
2023/04/11 04:59:33;;;;;;;5.97;1.50;;;10.60;99.90;;;;;;5079570;28;20250;-67
2023/04/11 05:01:59;;;;;;;7.05;1.85;;;10.50;99.90;;;;;;5079509;28;20474;-66
2023/04/11 05:04:25;;;;;;;5.93;1.80;;;10.50;99.90;;;;;;5078467;28;20246;-68
2023/04/11 05:06:51;;;;;;;8.82;1.80;;;10.50;99.90;;;;;;5059710;28;20212;-68
2023/04/11 05:09:19;;;;;;;5.82;1.50;;;10.50;99.90;;;;;;5058490;28;20169;-66
2023/04/11 05:11:47;;;;;;;6.78;1.60;;;10.50;99.90;;;;;;5058844;28;20181;-67
2023/04/11 05:14:12;;;;;;;5.10;1.50;;;10.50;99.90;;;;;;5062316;28;20214;-68
2023/04/11 05:16:41;;;;;;;7.40;1.48;;;10.50;99.90;;;;;;5065168;28;20267;-67
2023/04/11 05:19:07;;;;;;;5.72;1.50;;;10.60;99.90;;;;;;5081066;28;20274;-65
2023/04/11 05:21:32;;;;;;;6.07;1.60;;;10.60;99.90;;;;;;5091214;28;20214;-63
2023/04/11 05:23:58;;;;;;;5.13;1.70;;;10.60;99.90;;;;;;5077974;28;20218;-67
2023/04/11 05:26:24;;;;;;;3.60;1.45;;;10.60;99.90;;;;;;5078138;28;20179;-68
2023/04/11 05:28:49;;;;;;;4.18;1.40;;;10.60;99.90;;;;;;5064577;28;20176;-68
2023/04/11 05:31:18;;;;;;;4.85;1.60;;;10.60;99.90;;;;;;5077855;28;20172;-67
2023/04/11 05:33:43;;;;;;;5.32;1.90;;;10.70;99.90;;;;;;5077979;28;20195;-67
2023/04/11 05:36:12;;;;;;;4.90;1.60;;;10.70;99.90;;;;;;5077735;28;20255;-68
2023/04/11 05:38:43;;;;;;;5.95;2.15;;;10.70;99.90;;;;;;5077702;28;20278;-67
2023/04/11 05:41:12;;;;;;;10.88;2.42;;;10.70;99.90;;;;;;5077839;28;20168;-67
2023/04/11 05:43:38;;;;;;;5.67;2.00;;;10.70;99.90;;;;;;5074153;28;20510;-68
2023/04/11 05:46:04;;;;;;;5.72;1.70;;;10.80;99.90;;;;;;5079936;28;20254;-66
2023/04/11 05:48:30;;;;;;;4.68;1.58;;;10.70;99.90;;;;;;5060035;28;20181;-66
2023/04/11 05:50:59;;;;;;;3.97;1.50;;;10.80;99.90;;;;;;5070315;28;20204;-68
2023/04/11 05:53:25;;;;;;;6.18;1.85;;;10.80;99.90;;;;;;5077464;28;20196;-68
2023/04/11 05:55:53;;;;;;;7.15;1.75;;;10.80;99.90;;;;;;5075378;28;20255;-68
2023/04/11 05:58:18;;;;;;;5.20;1.50;;;10.80;99.90;;;;;;5069369;28;20171;-67
2023/04/11 06:00:48;;;;;;;5.65;1.80;;;10.90;99.90;;;;;;5068623;28;20259;-66
2023/04/11 06:03:16;;;;;;;4.88;1.67;;;10.90;99.90;;;;;;5091175;28;20263;-69
2023/04/11 06:05:44;;;;;;;5.93;2.00;;;10.90;99.90;;;;;;5104098;28;20202;-69
2023/04/11 06:08:12;;;;;;;4.53;1.48;;;10.90;99.90;;;;;;5077394;28;20203;-67
2023/04/11 06:10:37;;;;;;;6.10;1.70;;;10.90;99.90;;;;;;5077223;28;20164;-69
2023/04/11 06:13:03;;;;;;;4.07;1.33;;;10.90;99.90;;;;;;5077196;28;20212;-68
2023/04/11 06:15:31;;;;;;;5.85;1.75;;;10.90;99.90;;;;;;5077277;28;20227;-64
2023/04/11 06:17:57;;;;;;;5.03;1.65;;;10.80;99.90;;;;;;5077438;28;20188;-68
2023/04/11 06:20:26;;;;;;;7.07;1.60;;;10.80;99.90;;;;;;5095039;28;20238;-68
2023/04/11 06:22:51;;;;;;;4.75;1.80;;;10.80;99.90;;;;;;5097521;28;20183;-68
2023/04/11 06:25:20;;;;;;;5.35;1.50;;;10.80;99.90;;;;;;5092743;28;20206;-68
2023/04/11 06:27:46;;;;;;;5.97;2.13;;;10.90;99.90;;;;;;5085618;28;20211;-67
2023/04/11 06:30:13;;;;;;;7.25;1.70;;;10.80;99.90;;;;;;5068338;28;20194;-66
2023/04/11 06:32:38;;;;;;;7.05;2.20;;;10.80;99.90;;;;;;5094714;28;20279;-65
2023/04/11 06:35:05;;;;;;;6.78;2.00;;;10.80;99.90;;;;;;5076828;28;20255;-67
2023/04/11 06:37:35;;;;;;;6.40;2.00;;;10.90;99.90;;;;;;5076702;28;20172;-66
2023/04/11 06:40:04;;;;;;;7.57;2.60;;;10.90;99.90;;;;;;5077002;28;20224;-68
2023/04/11 06:42:31;;;;;;;5.85;2.25;;;10.90;99.90;;;;;;5077123;28;20186;-67
2023/04/11 06:44:57;;;;;;;6.32;2.33;;;10.90;99.90;;;;;;5076932;28;20192;-66
2023/04/11 06:47:23;;;;;;;4.47;1.75;;;10.90;99.90;;;;;;5066706;28;20179;-64
2023/04/11 06:49:54;;;;;;;6.30;2.25;;;11.00;99.90;;;;;;5057341;28;20176;-68
2023/04/11 06:52:20;;;;;;;4.50;1.70;;;11.00;99.90;;;;;;5073327;28;20207;-67
2023/04/11 06:54:47;;;;;;;5.93;2.30;;;11.00;99.90;;;;;;5077303;28;20196;-68
2023/04/11 06:57:14;;;;;;;7.95;2.42;;;11.10;99.90;;;;;;5061359;28;20176;-67
2023/04/11 06:59:40;;;;;;;8.30;2.22;;;11.10;99.90;;;;;;5066893;28;20176;-66
2023/04/11 07:02:08;;;;;;;5.63;1.90;;;11.20;99.90;;;;;;5085813;28;20214;-68
2023/04/11 07:04:34;;;;;;;6.82;2.30;;;11.30;99.90;;;;;;5077466;28;20176;-69
2023/04/11 07:07:03;;;;;;;10.15;2.35;;;11.30;99.90;;;;;;5070934;28;20177;-64
2023/04/11 07:09:29;;;;;;;7.30;2.30;;;11.40;99.90;;;;;;5057312;28;20196;-67
2023/04/11 07:11:55;;;;;;;3.75;1.77;;;11.40;99.90;;;;;;5057361;28;20342;-68
2023/04/11 07:14:26;;;;;;;5.80;2.08;;;11.50;99.90;;;;;;5066189;28;20159;-68
2023/04/11 07:16:54;;;;;;;4.72;2.03;;;11.50;99.90;;;;;;5076954;28;20164;-68
2023/04/11 07:19:20;;;;;;;6.05;2.03;;;11.50;99.90;;;;;;5087345;28;20237;-68
2023/04/11 07:21:45;;;;;;;10.80;2.75;;;11.60;99.90;;;;;;5092258;28;20176;-68
2023/04/11 07:24:17;;;;;;;8.70;2.05;;;11.60;99.90;;;;;;5068893;28;20207;-68
2023/04/11 07:26:46;;;;;;;5.10;2.05;;;11.60;99.90;;;;;;5077352;28;20192;-67
2023/04/11 07:29:14;;;;;;;8.00;2.30;;;11.70;99.90;;;;;;5076881;28;20172;-67
2023/04/11 07:31:43;;;;;;;7.10;1.92;;;11.70;99.90;;;;;;5077413;28;20172;-68
2023/04/11 07:34:11;;;;;;;7.97;2.45;;;11.80;99.90;;;;;;5080946;28;20207;-68
2023/04/11 07:36:37;;;;;;;6.93;2.58;;;11.70;99.90;;;;;;5093317;28;20199;-67
2023/04/11 07:39:03;;;;;;;5.88;2.25;;;11.70;99.90;;;;;;5097594;28;20168;-68
2023/04/11 07:41:29;;;;;;;7.18;2.13;;;11.70;99.90;;;;;;5097818;28;20255;-67
2023/04/11 07:43:56;;;;;;;5.22;2.05;;;11.70;99.90;;;;;;5100882;28;20195;-67
2023/04/11 07:46:22;;;;;;;5.90;1.90;;;11.70;99.90;;;;;;5101288;28;20179;-67
2023/04/11 07:48:48;;;;;;;7.53;2.15;;;11.70;99.90;;;;;;5089559;28;20187;-68
2023/04/11 07:51:16;;;;;;;6.45;2.47;;;11.70;99.90;;;;;;5080555;28;20203;-67
2023/04/11 07:53:41;;;;;;;7.38;2.30;;;11.80;99.90;;;;;;5097452;28;20200;-66
2023/04/11 07:56:10;;;;;;;4.53;1.90;;;11.80;99.90;;;;;;5087752;28;20176;-68
2023/04/11 07:58:35;;;;;;;7.53;2.05;;;11.80;99.90;;;;;;5080427;28;20227;-67
2023/04/11 08:01:07;;;;;;;6.20;2.13;;;11.90;99.90;;;;;;5080459;28;20188;-68
2023/04/11 08:03:36;;;;;;;4.53;1.73;;;12.00;99.90;;;;;;5079836;28;20172;-68
2023/04/11 08:06:01;;;;;;;4.80;1.90;;;12.10;99.90;;;;;;5080075;28;20200;-67
2023/04/11 08:08:27;;;;;;;4.90;1.67;;;12.10;99.90;;;;;;5080487;28;20199;-67
2023/04/11 08:10:52;;;;;;;8.32;1.90;;;12.10;99.90;;;;;;5080145;28;20194;-68
2023/04/11 08:13:20;;;;;;;5.35;1.85;;;12.20;99.90;;;;;;5065710;28;20196;-67
2023/04/11 08:15:50;;;;;;;5.22;1.90;;;12.20;99.90;;;;;;5093741;28;20173;-66
2023/04/11 08:18:20;;;;;;;6.50;1.67;;;12.20;99.90;;;;;;5093667;28;20183;-67
2023/04/11 08:20:51;;;;;;;5.93;1.90;;;12.30;99.90;;;;;;5093728;28;20184;-67
2023/04/11 08:23:19;;;;;;;5.18;1.70;;;12.30;99.90;;;;;;5060247;28;20230;-67
2023/04/11 08:25:45;;;;;;;5.90;1.75;;;12.40;99.90;;;;;;5076562;28;20184;-67
2023/04/11 08:28:11;;;;;;;7.15;1.88;;;12.40;99.90;;;;;;5087394;28;20232;-63
2023/04/11 08:30:39;;;;;;;4.90;1.60;;;12.40;99.90;;;;;;5079844;28;20203;-68
2023/04/11 08:33:05;;;;;;;6.13;1.70;;;12.50;99.90;;;;;;5079814;28;20368;-68
2023/04/11 08:35:33;;;;;;;6.38;1.80;;;12.50;99.90;;;;;;5080007;28;20191;-67
2023/04/11 08:37:59;;;;;;;5.15;1.45;;;12.50;99.90;;;;;;5086948;28;20199;-66
2023/04/11 08:40:27;;;;;;;5.63;1.85;;;12.50;99.90;;;;;;5099664;28;20248;-67
2023/04/11 08:42:58;;;;;;;2.80;1.10;;;12.50;99.90;;;;;;5084922;28;20266;-67
2023/04/11 08:45:24;;;;;;;4.53;1.60;;;12.50;99.90;;;;;;5058997;28;20172;-63
2023/04/11 08:47:53;;;;;;;3.53;1.30;;;12.60;99.90;;;;;;5088354;28;20188;-67
2023/04/11 08:50:18;;;;;;;2.95;1.20;;;12.60;99.90;;;;;;5079361;28;20451;-66
2023/04/11 08:52:47;;;;;;;3.60;1.30;;;12.60;99.90;;;;;;5094641;28;20203;-67
2023/04/11 08:55:12;;;;;;;5.07;1.45;;;12.60;99.90;;;;;;5091003;28;20207;-67
2023/04/11 08:57:41;;;;;;;4.90;1.40;;;12.70;99.90;;;;;;5079136;28;20184;-68
2023/04/11 09:00:09;;;;;;;2.55;1.42;;;12.70;99.90;;;;;;5078725;28;20195;-67
2023/04/11 09:03:03;;;;;;;5.90;1.33;;;12.80;99.90;;;;;;5076093;28;20176;-68
2023/04/11 09:05:40;;;;;;;10.45;1.52;;;12.90;99.90;;;;;;5086195;28;20196;-67
2023/04/11 09:08:08;;;;;;;3.25;1.20;;;13.00;99.90;;;;;;5097615;28;20194;-66
2023/04/11 09:10:40;;;;;;;3.55;1.10;;;13.00;99.90;;;;;;5078179;28;20195;-68
2023/04/11 09:13:23;;;;;;;3.25;1.05;;;13.10;99.90;;;;;;5081062;28;20191;-67
2023/04/11 09:16:02;;;;;;;3.08;1.20;;;13.20;99.90;;;;;;5099298;28;20195;-67
2023/04/11 09:18:36;;;;;;;3.50;1.20;;;13.20;99.90;;;;;;5095852;28;20263;-67
2023/04/11 09:21:07;;;;;;;3.75;0.90;;;13.30;99.90;;;;;;5100003;28;20210;-66
2023/04/11 09:23:36;;;;;;;3.88;1.15;;;13.40;99.90;;;;;;5078894;28;20176;-67
2023/04/11 09:26:07;;;;;;;4.57;1.27;;;13.50;99.90;;;;;;5063895;28;20285;-68
2023/04/11 09:28:41;;;;;;;3.45;1.30;;;13.50;99.90;;;;;;5060894;28;20192;-69
2023/04/11 09:31:08;;;;;;;5.32;1.80;;;13.60;99.90;;;;;;5112567;28;20198;-68
2023/04/11 09:33:34;;;;;;;2.60;1.00;;;13.70;99.90;;;;;;5058991;28;20197;-68
2023/04/11 09:36:01;;;;;;;4.75;1.13;;;13.70;99.90;;;;;;5077183;28;20203;-69
2023/04/11 09:38:34;;;;;;;3.78;1.17;;;13.70;99.90;;;;;;5080644;28;20172;-68
2023/04/11 09:41:04;;;;;;;4.43;1.25;;;13.70;99.90;;;;;;5086409;28;20180;-69
2023/04/11 09:43:51;;;;;;;3.15;0.85;;;13.70;99.90;;;;;;5095144;28;20209;-65
2023/04/11 09:46:19;;;;;;;4.97;1.73;;;13.80;99.90;;;;;;5098721;28;20175;-68
2023/04/11 09:48:47;;;;;;;5.65;1.20;;;13.80;99.90;;;;;;5098988;28;20175;-67
2023/04/11 09:51:18;;;;;;;2.72;1.40;;;13.90;99.90;;;;;;5096273;28;20182;-68
2023/04/11 09:53:44;;;;;;;5.28;1.52;;;13.90;99.90;;;;;;5093107;28;20193;-67
2023/04/11 09:56:10;;;;;;;4.72;1.30;;;13.90;99.90;;;;;;5077524;28;20168;-65
2023/04/11 09:58:37;;;;;;;3.20;1.27;;;13.90;99.90;;;;;;5098535;28;20436;-68
2023/04/11 10:01:06;;;;;;;4.20;1.50;;;14.00;99.90;;;;;;5098057;28;20171;-63
2023/04/11 10:03:40;;;;;;;2.45;1.20;;;14.10;99.90;;;;;;5078007;28;20280;-68
2023/04/11 10:06:08;;;;;;;8.45;1.65;;;14.50;99.90;;;;;;5077874;28;20201;-68
2023/04/11 10:08:40;;;;;;;4.38;1.60;;;14.90;99.90;;;;;;5081663;28;20252;-68
2023/04/11 10:11:13;;;;;;;4.60;1.48;;;15.20;99.90;;;;;;5089877;28;20203;-68
2023/04/11 10:13:46;;;;;;;3.03;1.20;;;15.30;99.90;;;;;;5069632;28;20200;-68
2023/04/11 10:16:17;;;;;;;5.90;1.50;;;15.30;99.90;;;;;;5077739;28;20231;-68
2023/04/11 10:18:52;;;;;;;2.50;1.23;;;15.40;99.90;;;;;;5071185;28;20538;-67
2023/04/11 10:21:29;;;;;;;2.92;1.23;;;15.60;99.90;;;;;;5081169;28;20267;-68
2023/04/11 10:24:14;;;;;;;2.72;1.42;;;15.90;99.90;;;;;;5106290;28;20242;-68
2023/04/11 10:26:56;;;;;;;4.75;1.42;;;16.20;99.90;;;;;;5076570;28;20203;-67
2023/04/11 10:29:39;;;;;;;2.70;1.10;;;16.50;99.90;;;;;;5076568;28;20172;-68
2023/04/11 10:32:15;;;;;;;4.68;1.40;;;16.60;99.90;;;;;;5077108;28;20199;-67
2023/04/11 10:35:03;;;;;;;5.28;1.58;;;16.60;99.90;;;;;;5076996;28;20167;-68
2023/04/11 10:37:29;;;;;;;4.13;1.48;;;16.60;99.90;;;;;;5073304;28;20180;-68
2023/04/11 10:39:57;;;;;;;3.50;1.02;;;16.60;99.90;;;;;;5077208;28;20168;-66
2023/04/11 10:42:36;;;;;;;4.60;1.20;;;16.60;99.90;;;;;;5076698;28;20436;-67
2023/04/11 10:45:18;;;;;;;3.92;1.13;;;16.50;99.90;;;;;;5072960;28;20168;-68
2023/04/11 10:47:58;;;;;;;4.28;1.42;;;16.50;99.90;;;;;;5090628;28;20230;-68
2023/04/11 10:50:30;;;;;;;4.60;1.35;;;16.40;99.90;;;;;;5090383;28;20321;-68
2023/04/11 10:52:57;;;;;;;3.67;1.38;;;16.30;99.90;;;;;;5090261;28;20208;-68
2023/04/11 10:55:25;;;;;;;4.35;1.38;;;16.30;99.90;;;;;;5060285;28;20168;-69
2023/04/11 10:58:07;;;;;;;5.22;1.40;;;16.40;99.90;;;;;;5073228;28;20180;-66
2023/04/11 11:00:48;;;;;;;4.60;1.50;;;16.40;99.90;;;;;;5075348;28;20199;-68
2023/04/11 11:03:20;;;;;;;4.60;1.30;;;16.50;99.90;;;;;;5063755;28;20267;-68
2023/04/11 11:05:46;;;;;;;4.15;1.30;;;16.60;99.90;;;;;;5056671;28;20209;-67
2023/04/11 11:08:12;;;;;;;4.68;1.60;;;16.70;99.90;;;;;;5059685;28;20194;-68
2023/04/11 11:10:41;;;;;;;3.13;1.40;;;16.90;99.90;;;;;;5060777;28;20423;-67
2023/04/11 11:13:09;;;;;;;4.07;1.30;;;16.70;99.90;;;;;;5060324;28;20291;-65
2023/04/11 11:15:38;;;;;;;3.10;1.20;;;16.70;99.90;;;;;;5060907;28;20222;-68
2023/04/11 11:18:08;;;;;;;5.03;1.40;;;16.60;99.90;;;;;;5060509;28;20188;-67
2023/04/11 11:20:36;;;;;;;3.08;1.30;;;16.60;99.90;;;;;;5060308;28;20197;-67
2023/04/11 11:23:10;;;;;;;4.88;1.67;;;16.60;99.90;;;;;;5094533;28;20176;-69
2023/04/11 11:25:36;;;;;;;4.90;1.33;;;16.70;99.90;;;;;;5109170;28;20183;-68
2023/04/11 11:28:08;;;;;;;3.33;1.40;;;16.80;99.90;;;;;;5071922;28;20196;-68
2023/04/11 11:30:35;;;;;;;2.95;1.13;;;16.70;99.90;;;;;;5065594;28;20176;-68
2023/04/11 11:33:16;;;;;;;4.30;1.25;;;16.70;99.90;;;;;;5069006;28;20206;-65
2023/04/11 11:35:45;;;;;;;3.28;1.10;;;16.80;99.90;;;;;;5100173;28;20162;-68
2023/04/11 11:38:10;;;;;;;3.10;1.10;;;16.70;99.90;;;;;;5080661;28;20172;-69
2023/04/11 11:40:36;;;;;;;3.75;1.30;;;16.70;99.90;;;;;;5080389;28;20203;-67
2023/04/11 11:43:06;;;;;;;5.22;1.60;;;16.70;99.90;;;;;;5080445;28;20175;-68
2023/04/11 11:45:32;;;;;;;3.33;1.10;;;16.80;99.90;;;;;;5064871;28;20180;-68
2023/04/11 11:48:00;;;;;;;5.25;1.45;;;16.90;99.90;;;;;;5060490;28;20185;-69
2023/04/11 11:50:31;;;;;;;3.15;1.13;;;17.00;99.90;;;;;;5073723;28;20215;-68
2023/04/11 11:53:14;;;;;;;5.10;1.50;;;17.10;99.90;;;;;;5096364;28;20295;-68
2023/04/11 11:55:42;;;;;;;3.35;1.33;;;17.30;99.90;;;;;;5080107;28;20171;-68
2023/04/11 11:58:10;;;;;;;4.15;1.50;;;17.40;99.90;;;;;;5098177;28;20175;-69
2023/04/11 12:00:41;;;;;;;4.18;1.38;;;17.40;99.90;;;;;;5080210;28;20199;-66
2023/04/11 12:03:09;;;;;;;3.67;1.40;;;17.50;99.90;;;;;;5061993;28;20180;-68
2023/04/11 12:05:36;;;;;;;3.60;1.40;;;17.50;99.90;;;;;;5093566;28;20196;-67
2023/04/11 12:08:04;;;;;;;3.45;1.30;;;17.50;99.90;;;;;;5078006;28;20259;-68
2023/04/11 12:10:41;;;;;;;4.70;1.30;;;17.40;99.90;;;;;;5096956;28;20168;-69
2023/04/11 12:13:34;;;;;;;3.05;1.10;;;17.20;99.90;;;;;;5059859;28;20212;-67
2023/04/11 12:16:00;;;;;;;3.05;1.30;;;17.00;99.90;;;;;;5058384;28;20184;-68
2023/04/11 12:18:27;;;;;;;2.92;1.30;;;16.70;99.90;;;;;;5058585;28;20206;-69
2023/04/11 12:20:55;;;;;;;4.28;1.33;;;16.50;99.90;;;;;;5063122;28;20172;-68
2023/04/11 12:23:21;;;;;;;2.65;1.00;;;16.40;99.90;;;;;;5080084;28;20176;-69
2023/04/11 12:25:47;;;;;;;3.33;1.10;;;16.30;99.90;;;;;;5082911;28;20211;-68
2023/04/11 12:28:13;;;;;;;2.50;1.00;;;16.40;99.90;;;;;;5091639;28;20187;-69
2023/04/11 12:30:40;;;;;;;3.08;1.00;;;16.50;99.90;;;;;;5079625;28;20176;-69
2023/04/11 12:33:06;;;;;;;2.13;0.90;;;16.70;99.90;;;;;;5076809;28;20202;-69
2023/04/11 12:35:32;;;;;;;3.38;1.08;;;16.90;99.90;;;;;;5090828;28;20172;-67
2023/04/11 12:37:58;;;;;;;2.95;1.10;;;17.10;99.90;;;;;;5079519;28;20191;-69
2023/04/11 12:40:28;;;;;;;4.47;1.10;;;17.20;99.90;;;;;;5079571;28;20172;-69
2023/04/11 12:42:54;;;;;;;2.33;1.10;;;17.30;99.90;;;;;;5079327;28;20175;-69
2023/04/11 12:45:21;;;;;;;2.78;0.90;;;17.40;99.90;;;;;;5079319;28;20176;-69
2023/04/11 12:47:47;;;;;;;2.15;0.90;;;17.40;99.90;;;;;;5079589;28;20171;-68
2023/04/11 12:50:15;;;;;;;3.90;1.10;;;17.50;99.90;;;;;;5068301;28;20189;-69
2023/04/11 12:52:41;;;;;;;5.13;0.93;;;17.70;99.90;;;;;;5093074;28;20248;-67